METAR Data
IDs: Format: Raw Decoded Include TAF

Data at: 2131 UTC 18 Apr 2021

METAR for:KJCT (Junction/Kimble Cnty, TX, US)
Text:KJCT 182051Z AUTO VRB05KT 10SM CLR 19/01 A3011 RMK AO2 SLP173 T01940006 56024
Temperature: 19.4°C ( 67°F)
Dewpoint: 0.6°C ( 33°F) [RH = 28%]
Pressure (altimeter):30.11 inches Hg (1019.7 mb) [Sea level pressure: 1017.3 mb]
Winds:variable direction winds at 6 MPH (5 knots; 2.6 m/s)
Visibility:10 or more sm (16+ km)
Ceiling:at least 12,000 feet AGL
Clouds:sky clear below 12,000 feet AGL
QC Flag:automated observation with no human augmentation